createdAt,value
2018-01-27T00:00:01.565Z,3.63
2018-01-27T00:02:27.676Z,3.58
2018-01-27T00:04:53.681Z,3.60
2018-01-27T00:07:19.708Z,3.53
2018-01-27T00:09:45.756Z,3.42
2018-01-27T00:12:11.764Z,3.44
2018-01-27T00:14:37.892Z,3.44
2018-01-27T00:17:03.946Z,3.46
2018-01-27T00:19:29.944Z,3.48
2018-01-27T00:21:55.988Z,3.49
2018-01-27T00:24:22.114Z,3.58
2018-01-27T00:26:48.169Z,3.59
2018-01-27T00:29:14.189Z,3.55
2018-01-27T00:31:40.232Z,3.57
2018-01-27T00:34:09.636Z,3.53
2018-01-27T00:36:35.877Z,3.73
2018-01-27T00:39:02.068Z,3.85
2018-01-27T00:41:28.068Z,4.02
2018-01-27T00:43:54.100Z,4.05
2018-01-27T00:46:20.168Z,3.93
2018-01-27T00:48:46.201Z,3.78
2018-01-27T00:51:12.317Z,3.71
2018-01-27T00:53:38.353Z,3.71
2018-01-27T00:56:04.343Z,3.66
2018-01-27T00:58:30.453Z,3.67
2018-01-27T01:00:56.493Z,3.57
2018-01-27T01:03:22.528Z,3.52
2018-01-27T01:05:48.546Z,3.55
2018-01-27T01:08:14.584Z,3.58
2018-01-27T01:10:40.607Z,3.54
2018-01-27T01:13:06.652Z,3.54
2018-01-27T01:15:32.704Z,3.46
2018-01-27T01:17:58.736Z,3.44
2018-01-27T01:20:24.782Z,3.55
2018-01-27T01:22:50.819Z,3.63
2018-01-27T01:25:16.876Z,3.64
2018-01-27T01:27:42.909Z,3.61
2018-01-27T01:30:15.988Z,3.60
2018-01-27T01:32:42.021Z,3.61
2018-01-27T01:35:08.080Z,3.62
2018-01-27T01:37:34.159Z,3.73
2018-01-27T01:40:00.132Z,3.81
2018-01-27T01:42:32.175Z,3.79
2018-01-27T01:44:58.205Z,3.73
2018-01-27T01:47:24.221Z,3.69
2018-01-27T01:49:50.248Z,3.72
2018-01-27T01:52:16.317Z,3.63
2018-01-27T01:54:42.333Z,3.64
2018-01-27T01:57:08.335Z,3.63
2018-01-27T01:59:34.392Z,3.66
2018-01-27T02:02:00.396Z,3.65
2018-01-27T02:04:26.433Z,3.69
2018-01-27T02:06:52.397Z,3.67
2018-01-27T02:09:18.434Z,3.63
2018-01-27T02:11:44.488Z,3.61
2018-01-27T02:14:10.560Z,3.52
2018-01-27T02:16:36.631Z,3.54
2018-01-27T02:19:02.660Z,3.54
2018-01-27T02:21:28.707Z,3.40
2018-01-27T02:23:54.731Z,3.47
2018-01-27T02:26:20.756Z,3.43
2018-01-27T02:28:46.773Z,3.42
2018-01-27T02:31:12.829Z,3.33
2018-01-27T02:33:38.858Z,3.36
2018-01-27T02:36:04.924Z,3.39
2018-01-27T02:38:31.021Z,3.40
2018-01-27T02:40:57.068Z,3.46
2018-01-27T02:43:23.097Z,3.44
2018-01-27T02:45:49.080Z,3.41
2018-01-27T02:48:15.137Z,3.48
2018-01-27T02:50:41.272Z,3.55
2018-01-27T02:53:07.316Z,3.53
2018-01-27T02:55:33.364Z,3.44
2018-01-27T02:57:59.421Z,3.31
2018-01-27T03:00:25.457Z,3.27
2018-01-27T03:02:51.509Z,3.24
2018-01-27T03:05:17.510Z,3.27
2018-01-27T03:07:43.552Z,3.29
2018-01-27T03:10:09.580Z,3.36
2018-01-27T03:12:35.599Z,3.37
2018-01-27T03:15:01.820Z,3.33
2018-01-27T03:17:27.789Z,3.29
2018-01-27T03:19:53.836Z,3.32
2018-01-27T03:22:19.864Z,3.37
2018-01-27T03:24:45.943Z,3.48
2018-01-27T03:27:11.892Z,3.59
2018-01-27T03:29:37.880Z,3.55
2018-01-27T03:32:04.019Z,3.54
2018-01-27T03:34:30.034Z,3.49
2018-01-27T03:36:56.060Z,3.64
2018-01-27T03:39:22.075Z,3.54
2018-01-27T03:41:48.152Z,3.47
2018-01-27T03:44:14.160Z,3.46
2018-01-27T03:46:40.252Z,3.51
2018-01-27T03:49:06.300Z,3.45
2018-01-27T03:51:32.301Z,3.50
2018-01-27T03:53:58.304Z,3.65
2018-01-27T03:56:24.548Z,3.65
2018-01-27T03:58:50.587Z,3.80
2018-01-27T04:01:16.648Z,3.67
2018-01-27T04:03:42.655Z,3.62
2018-01-27T04:06:08.681Z,3.55
2018-01-27T04:08:34.704Z,3.72
2018-01-27T04:11:00.744Z,3.73
2018-01-27T04:13:26.791Z,3.73
2018-01-27T04:15:52.801Z,3.71
2018-01-27T04:18:18.816Z,3.58
2018-01-27T04:20:44.824Z,3.54
2018-01-27T04:23:10.831Z,3.48
2018-01-27T04:25:36.899Z,3.43
2018-01-27T04:28:02.920Z,3.37
2018-01-27T04:30:28.933Z,3.29
2018-01-27T04:32:55.148Z,3.33
2018-01-27T04:35:21.172Z,3.30
2018-01-27T04:37:47.233Z,3.32
2018-01-27T04:40:13.280Z,3.32
2018-01-27T04:42:39.317Z,3.33
2018-01-27T04:45:05.373Z,3.33
2018-01-27T04:47:31.405Z,3.34
2018-01-27T04:49:57.471Z,3.40
2018-01-27T04:52:23.496Z,3.42
2018-01-27T04:54:49.457Z,3.41
2018-01-27T04:57:15.461Z,3.37
2018-01-27T04:59:41.458Z,3.28
2018-01-27T05:02:07.525Z,3.33
2018-01-27T05:04:33.528Z,3.32
2018-01-27T05:06:59.686Z,3.31
2018-01-27T05:09:25.743Z,3.26
2018-01-27T05:11:51.760Z,3.13
2018-01-27T05:14:17.792Z,3.14
2018-01-27T05:16:43.808Z,3.20
2018-01-27T05:19:09.808Z,3.22
2018-01-27T05:21:35.844Z,3.27
2018-01-27T05:24:01.845Z,3.31
2018-01-27T05:26:27.929Z,3.33
2018-01-27T05:28:53.976Z,3.33
2018-01-27T05:31:19.992Z,3.24
2018-01-27T05:33:46.032Z,3.24
2018-01-27T05:36:12.040Z,3.30
2018-01-27T05:38:38.079Z,3.36
2018-01-27T05:41:04.097Z,3.37
2018-01-27T05:43:30.053Z,3.46
2018-01-27T05:45:56.080Z,3.59
2018-01-27T05:48:22.113Z,3.57
2018-01-27T05:50:48.216Z,3.51
2018-01-27T05:53:14.212Z,3.49
2018-01-27T05:55:40.276Z,3.46
2018-01-27T05:58:06.320Z,3.43
2018-01-27T06:00:32.369Z,3.27
2018-01-27T06:02:58.485Z,3.19
2018-01-27T06:05:24.514Z,3.24
2018-01-27T06:07:50.549Z,3.32
2018-01-27T06:10:16.708Z,3.31
2018-01-27T06:12:42.777Z,3.27
2018-01-27T06:15:08.844Z,3.23
2018-01-27T06:17:34.846Z,3.16
2018-01-27T06:20:00.885Z,3.26
2018-01-27T06:22:26.843Z,3.32
2018-01-27T06:24:52.952Z,3.35
2018-01-27T06:27:19.029Z,3.36
2018-01-27T06:29:45.000Z,3.33
2018-01-27T06:32:11.084Z,3.27
2018-01-27T06:34:37.087Z,3.29
2018-01-27T06:37:03.116Z,3.32
2018-01-27T06:39:29.221Z,3.39
2018-01-27T06:41:55.176Z,3.38
2018-01-27T06:44:21.172Z,3.33
2018-01-27T06:46:47.212Z,3.34
2018-01-27T06:49:13.324Z,3.39
2018-01-27T06:51:39.387Z,3.43
2018-01-27T06:54:05.385Z,3.45
2018-01-27T06:56:31.400Z,3.47
2018-01-27T06:58:57.381Z,3.49
2018-01-27T07:01:23.404Z,3.49
2018-01-27T07:03:49.446Z,3.51
2018-01-27T07:06:15.463Z,3.49
2018-01-27T07:08:41.441Z,3.45
2018-01-27T07:11:07.469Z,3.43
2018-01-27T07:13:33.479Z,3.46
2018-01-27T07:15:59.453Z,3.47
2018-01-27T07:18:25.454Z,3.46
2018-01-27T07:20:51.547Z,3.50
2018-01-27T07:23:17.576Z,3.50
2018-01-27T07:25:43.604Z,3.46
2018-01-27T07:28:09.595Z,3.43
2018-01-27T07:30:35.651Z,3.46
2018-01-27T07:33:01.717Z,3.50
2018-01-27T07:35:27.763Z,3.54
2018-01-27T07:37:53.881Z,3.54
2018-01-27T07:40:19.912Z,3.53
2018-01-27T07:42:45.923Z,3.56
2018-01-27T07:45:11.911Z,3.64
2018-01-27T07:47:37.912Z,3.74
2018-01-27T07:50:04.056Z,3.82
2018-01-27T07:52:30.060Z,3.89
2018-01-27T07:54:56.073Z,3.83
2018-01-27T07:57:22.101Z,3.93
2018-01-27T07:59:48.051Z,3.91
2018-01-27T08:02:14.076Z,3.86
2018-01-27T08:04:40.144Z,3.80
2018-01-27T08:07:06.151Z,3.78
2018-01-27T08:09:32.211Z,3.89
2018-01-27T08:11:58.279Z,3.79
2018-01-27T08:14:24.333Z,3.82
2018-01-27T08:16:50.364Z,3.80
2018-01-27T08:19:16.377Z,3.79
2018-01-27T08:21:42.440Z,3.68
2018-01-27T08:24:08.456Z,3.67
2018-01-27T08:26:34.472Z,3.67
2018-01-27T08:29:00.556Z,3.81
2018-01-27T08:31:26.600Z,3.81
2018-01-27T08:33:52.677Z,3.76
2018-01-27T08:36:18.688Z,3.78
2018-01-27T08:38:44.735Z,3.70
2018-01-27T08:41:10.814Z,3.70
2018-01-27T08:43:36.964Z,3.63
2018-01-27T08:46:03.023Z,3.75
2018-01-27T08:48:29.042Z,3.66
2018-01-27T08:50:55.148Z,3.66
2018-01-27T08:53:21.173Z,3.65
2018-01-27T08:55:47.203Z,3.68
2018-01-27T08:58:13.214Z,3.69
2018-01-27T09:00:40.136Z,3.65
2018-01-27T09:03:06.262Z,3.61
2018-01-27T09:05:32.292Z,3.65
2018-01-27T09:07:58.348Z,3.64
2018-01-27T09:10:24.384Z,3.68
2018-01-27T09:12:50.749Z,3.73
2018-01-27T09:15:16.821Z,3.86
2018-01-27T09:17:42.879Z,3.84
2018-01-27T09:20:08.889Z,3.83
2018-01-27T09:22:34.897Z,3.88
2018-01-27T09:25:00.934Z,3.89
2018-01-27T09:27:26.941Z,3.89
2018-01-27T09:29:53.593Z,3.93
2018-01-27T09:32:19.632Z,3.89
2018-01-27T09:34:45.644Z,3.88
2018-01-27T09:37:11.661Z,3.94
2018-01-27T09:39:37.668Z,4.12
2018-01-27T09:42:03.709Z,4.18
2018-01-27T09:44:29.748Z,4.23
2018-01-27T09:46:55.764Z,4.33
2018-01-27T09:49:21.828Z,4.35
2018-01-27T09:51:47.848Z,4.41
2018-01-27T09:54:13.861Z,4.49
2018-01-27T09:56:39.909Z,4.46
2018-01-27T09:59:05.901Z,4.41
2018-01-27T10:01:31.960Z,4.35
2018-01-27T10:03:57.961Z,4.35
2018-01-27T10:06:23.965Z,4.28
2018-01-27T10:08:50.076Z,4.37
2018-01-27T10:11:16.566Z,4.50
2018-01-27T10:13:42.637Z,4.71
2018-01-27T10:16:08.742Z,4.76
2018-01-27T10:18:34.830Z,4.77
2018-01-27T10:21:01.013Z,4.84
2018-01-27T10:23:27.033Z,4.99
2018-01-27T10:25:53.049Z,5.00
2018-01-27T10:28:19.364Z,4.93
2018-01-27T10:30:45.420Z,4.85
2018-01-27T10:33:11.542Z,4.80
2018-01-27T10:35:44.532Z,4.78
2018-01-27T10:38:11.155Z,4.78
2018-01-27T10:40:37.245Z,4.71
2018-01-27T10:43:03.369Z,4.73
2018-01-27T10:45:29.389Z,4.77
2018-01-27T10:47:55.412Z,4.80
2018-01-27T10:50:21.465Z,4.85
2018-01-27T10:52:47.480Z,4.88
2018-01-27T10:55:13.521Z,5.03
2018-01-27T10:57:39.530Z,5.18
2018-01-27T11:00:05.545Z,5.10
2018-01-27T11:02:31.590Z,5.07
2018-01-27T11:04:57.660Z,5.01
2018-01-27T11:07:23.728Z,5.11
2018-01-27T11:09:49.774Z,5.24
2018-01-27T11:12:15.787Z,5.19
2018-01-27T11:14:41.928Z,5.22
2018-01-27T11:17:07.964Z,5.36
2018-01-27T11:19:33.960Z,5.32
2018-01-27T11:22:00.010Z,5.22
2018-01-27T11:24:26.029Z,5.16
2018-01-27T11:26:52.132Z,5.13
2018-01-27T11:29:18.192Z,5.07
2018-01-27T11:31:44.262Z,5.07
2018-01-27T11:34:10.721Z,5.25
2018-01-27T11:36:37.126Z,5.33
2018-01-27T11:39:03.996Z,5.50
2018-01-27T11:41:30.060Z,5.41
2018-01-27T11:43:56.244Z,5.51
2018-01-27T11:46:22.252Z,5.40
2018-01-27T11:48:48.270Z,5.09
2018-01-27T11:51:14.377Z,5.10
2018-01-27T11:53:40.390Z,5.13
2018-01-27T11:56:06.435Z,5.07
2018-01-27T11:58:32.457Z,5.07
2018-01-27T12:01:03.729Z,5.09
2018-01-27T12:03:29.789Z,5.13
2018-01-27T12:05:55.856Z,5.08
2018-01-27T12:08:21.926Z,5.07
2018-01-27T12:10:48.146Z,5.09
2018-01-27T12:13:14.184Z,5.12
2018-01-27T12:15:40.327Z,5.15
2018-01-27T12:18:06.415Z,5.18
2018-01-27T12:20:32.548Z,5.19
2018-01-27T12:22:58.620Z,5.26
2018-01-27T12:25:24.722Z,5.23
2018-01-27T12:27:50.793Z,5.32
2018-01-27T12:30:16.849Z,5.29
2018-01-27T12:32:42.940Z,5.31
2018-01-27T12:35:09.132Z,5.32
2018-01-27T12:37:35.193Z,5.34
2018-01-27T12:40:01.205Z,5.40
2018-01-27T12:42:27.311Z,5.37
2018-01-27T12:44:53.326Z,5.32
2018-01-27T12:47:19.346Z,5.33
2018-01-27T12:49:45.411Z,5.40
2018-01-27T12:52:11.509Z,5.39
2018-01-27T12:54:37.532Z,5.34
2018-01-27T12:57:03.690Z,5.34
2018-01-27T12:59:29.728Z,5.38
2018-01-27T13:01:57.387Z,5.40
2018-01-27T13:04:23.436Z,5.40
2018-01-27T13:06:49.482Z,5.45
2018-01-27T13:09:15.505Z,5.39
2018-01-27T13:11:41.496Z,5.51
2018-01-27T13:14:07.542Z,5.45
2018-01-27T13:16:33.557Z,5.47
2018-01-27T13:18:59.560Z,5.38
2018-01-27T13:21:25.525Z,5.39
2018-01-27T13:23:51.853Z,5.49
2018-01-27T13:26:17.939Z,5.47
2018-01-27T13:28:44.004Z,5.48
2018-01-27T13:31:10.062Z,5.51
2018-01-27T13:33:37.037Z,5.52
2018-01-27T13:36:03.032Z,5.57
2018-01-27T13:38:29.093Z,5.58
2018-01-27T13:40:55.233Z,5.61
2018-01-27T13:43:21.153Z,5.68
2018-01-27T13:45:47.260Z,5.69
2018-01-27T13:48:13.268Z,5.69
2018-01-27T13:50:39.363Z,5.72
2018-01-27T13:53:05.387Z,5.82
2018-01-27T13:55:31.368Z,5.81
2018-01-27T13:57:57.795Z,5.93
2018-01-27T14:00:23.968Z,5.93
2018-01-27T14:02:51.568Z,5.79
2018-01-27T14:05:17.601Z,5.78
2018-01-27T14:07:43.644Z,5.86
2018-01-27T14:10:09.832Z,5.81
2018-01-27T14:12:35.869Z,5.77
2018-01-27T14:15:01.902Z,5.93
2018-01-27T14:17:27.922Z,6.00
2018-01-27T14:19:54.020Z,5.96
2018-01-27T14:22:20.034Z,5.90
2018-01-27T14:24:46.064Z,6.04
2018-01-27T14:27:12.229Z,6.04
2018-01-27T14:29:38.248Z,6.03
2018-01-27T14:32:04.391Z,5.94
2018-01-27T14:34:30.416Z,6.00
2018-01-27T14:36:56.458Z,5.96
2018-01-27T14:39:22.505Z,5.88
2018-01-27T14:41:48.632Z,5.86
2018-01-27T14:44:14.689Z,5.95
2018-01-27T14:46:40.726Z,6.02
2018-01-27T14:49:06.811Z,6.04
2018-01-27T14:51:32.980Z,6.00
2018-01-27T14:53:58.992Z,6.00
2018-01-27T14:56:25.109Z,5.93
2018-01-27T14:58:51.125Z,6.01
2018-01-27T15:01:17.143Z,5.92
2018-01-27T15:03:43.208Z,5.92
2018-01-27T15:06:09.313Z,5.90
2018-01-27T15:08:35.375Z,5.91
2018-01-27T15:11:01.425Z,5.83
2018-01-27T15:13:27.418Z,5.89
2018-01-27T15:15:53.471Z,5.92
2018-01-27T15:18:19.468Z,5.92
2018-01-27T15:20:45.492Z,5.91
2018-01-27T15:23:11.578Z,5.89
2018-01-27T15:25:37.590Z,5.84
2018-01-27T15:28:03.848Z,5.77
2018-01-27T15:30:29.850Z,5.75
2018-01-27T15:32:55.830Z,5.75
2018-01-27T15:35:21.984Z,5.70
2018-01-27T15:37:48.165Z,5.71
2018-01-27T15:40:14.218Z,5.73
2018-01-27T15:42:40.240Z,5.72
2018-01-27T15:45:06.289Z,5.72
2018-01-27T15:47:32.373Z,5.71
2018-01-27T15:49:58.484Z,5.69
2018-01-27T15:52:24.533Z,5.63
2018-01-27T15:54:50.583Z,5.66
2018-01-27T15:57:16.689Z,5.67
2018-01-27T15:59:42.723Z,5.68
2018-01-27T16:02:08.756Z,5.67
2018-01-27T16:04:34.940Z,5.67
2018-01-27T16:07:01.004Z,5.66
2018-01-27T16:09:27.074Z,5.67
2018-01-27T16:11:53.132Z,5.71
2018-01-27T16:14:19.177Z,5.72
2018-01-27T16:16:45.248Z,5.73
2018-01-27T16:19:11.301Z,5.73
2018-01-27T16:21:37.353Z,5.72
2018-01-27T16:24:03.422Z,5.71
2018-01-27T16:26:29.490Z,5.70
2018-01-27T16:28:56.397Z,5.67
2018-01-27T16:31:22.529Z,5.64
2018-01-27T16:33:48.627Z,5.61
2018-01-27T16:36:14.654Z,5.62
2018-01-27T16:38:40.689Z,5.58
2018-01-27T16:41:06.704Z,5.58
2018-01-27T16:43:32.689Z,5.67
2018-01-27T16:45:58.761Z,5.59
2018-01-27T16:48:24.884Z,5.57
2018-01-27T16:50:50.920Z,5.51
2018-01-27T16:53:16.964Z,5.41
2018-01-27T16:55:43.076Z,5.42
2018-01-27T16:58:09.079Z,5.41
2018-01-27T17:00:35.126Z,5.46
2018-01-27T17:03:01.181Z,5.49
2018-01-27T17:05:27.198Z,5.47
2018-01-27T17:07:53.248Z,5.35
2018-01-27T17:10:19.309Z,5.25
2018-01-27T17:12:45.333Z,5.31
2018-01-27T17:15:11.357Z,5.32
2018-01-27T17:17:37.397Z,5.35
2018-01-27T17:20:04.543Z,5.30
2018-01-27T17:22:30.585Z,5.31
2018-01-27T17:24:56.659Z,5.38
2018-01-27T17:27:22.721Z,5.33
2018-01-27T17:29:48.848Z,5.27
2018-01-27T17:32:14.896Z,5.17
2018-01-27T17:34:41.030Z,5.16
2018-01-27T17:37:07.079Z,5.12
2018-01-27T17:39:33.096Z,5.25
2018-01-27T17:41:59.145Z,5.16
2018-01-27T17:44:25.236Z,5.11
2018-01-27T17:46:51.235Z,5.23
2018-01-27T17:49:17.245Z,5.11
2018-01-27T17:51:43.317Z,5.13
2018-01-27T17:54:09.412Z,5.09
2018-01-27T17:56:35.424Z,5.04
2018-01-27T17:59:01.502Z,5.02
2018-01-27T18:01:27.521Z,4.96
2018-01-27T18:03:53.549Z,5.12
2018-01-27T18:06:26.600Z,5.05
2018-01-27T18:08:52.598Z,5.02
2018-01-27T18:11:18.614Z,4.90
2018-01-27T18:13:44.700Z,4.89
2018-01-27T18:16:10.818Z,4.89
2018-01-27T18:18:36.905Z,4.97
2018-01-27T18:21:02.989Z,4.90
2018-01-27T18:23:29.138Z,5.07
2018-01-27T18:25:55.197Z,5.08
2018-01-27T18:28:21.258Z,5.11
2018-01-27T18:30:47.296Z,5.00
2018-01-27T18:33:13.326Z,4.94
2018-01-27T18:35:39.344Z,4.91
2018-01-27T18:38:05.383Z,4.91
2018-01-27T18:40:31.425Z,4.84
2018-01-27T18:42:57.474Z,4.79
2018-01-27T18:45:23.481Z,4.83
2018-01-27T18:47:49.529Z,4.77
2018-01-27T18:50:15.574Z,4.73
2018-01-27T18:52:41.559Z,4.74
2018-01-27T18:55:07.607Z,4.85
2018-01-27T18:57:33.627Z,4.63
2018-01-27T18:59:59.622Z,4.52
2018-01-27T19:02:25.641Z,4.40
2018-01-27T19:04:51.660Z,4.33
2018-01-27T19:07:17.708Z,4.31
2018-01-27T19:09:43.788Z,4.19
2018-01-27T19:12:10.001Z,3.94
2018-01-27T19:14:36.062Z,3.99
2018-01-27T19:17:02.038Z,3.86
2018-01-27T19:19:28.097Z,3.82
2018-01-27T19:21:54.145Z,3.82
2018-01-27T19:24:20.262Z,3.79
2018-01-27T19:26:46.292Z,3.79
2018-01-27T19:29:12.316Z,3.79
2018-01-27T19:31:38.345Z,3.76
2018-01-27T19:34:04.550Z,3.76
2018-01-27T19:36:30.613Z,3.78
2018-01-27T19:38:56.628Z,3.71
2018-01-27T19:41:22.674Z,3.71
2018-01-27T19:43:48.707Z,3.77
2018-01-27T19:46:14.732Z,3.77
2018-01-27T19:48:40.765Z,3.77
2018-01-27T19:51:06.791Z,3.73
2018-01-27T19:53:32.857Z,3.54
2018-01-27T19:55:59.300Z,3.51
2018-01-27T19:58:25.306Z,3.53
2018-01-27T20:00:51.396Z,3.55
2018-01-27T20:03:17.431Z,3.47
2018-01-27T20:05:43.480Z,3.47
2018-01-27T20:08:09.493Z,3.48
2018-01-27T20:10:35.533Z,3.54
2018-01-27T20:13:01.589Z,3.43
2018-01-27T20:15:27.677Z,3.25
2018-01-27T20:17:53.688Z,3.38
2018-01-27T20:20:19.753Z,3.41
2018-01-27T20:22:45.761Z,3.40
2018-01-27T20:25:12.078Z,3.40
2018-01-27T20:27:38.096Z,3.39
2018-01-27T20:30:04.109Z,3.40
2018-01-27T20:32:30.180Z,3.33
2018-01-27T20:34:56.177Z,3.32
2018-01-27T20:37:22.209Z,3.38
2018-01-27T20:39:48.214Z,3.41
2018-01-27T20:42:14.296Z,3.53
2018-01-27T20:44:40.414Z,3.54
2018-01-27T20:47:06.493Z,3.47
2018-01-27T20:49:32.604Z,3.42
2018-01-27T20:51:58.693Z,3.45
2018-01-27T20:54:24.792Z,3.45
2018-01-27T20:56:50.817Z,3.43
2018-01-27T20:59:16.924Z,3.43
2018-01-27T21:01:42.984Z,3.50
2018-01-27T21:04:09.079Z,3.53
2018-01-27T21:06:35.144Z,3.54
2018-01-27T21:09:01.203Z,3.61
2018-01-27T21:11:27.274Z,3.60
2018-01-27T21:13:53.332Z,3.71
2018-01-27T21:16:19.448Z,3.77
2018-01-27T21:18:45.433Z,3.79
2018-01-27T21:21:11.454Z,3.87
2018-01-27T21:23:37.473Z,3.82
2018-01-27T21:26:03.588Z,3.82
2018-01-27T21:28:29.617Z,3.82
2018-01-27T21:30:55.673Z,3.92
2018-01-27T21:33:21.713Z,3.75
2018-01-27T21:35:48.090Z,3.76
2018-01-27T21:38:14.144Z,3.74
2018-01-27T21:40:40.148Z,3.88
2018-01-27T21:43:06.218Z,3.77
2018-01-27T21:45:32.232Z,3.77
2018-01-27T21:47:58.300Z,3.81
2018-01-27T21:50:24.338Z,3.91
2018-01-27T21:52:50.378Z,3.82
2018-01-27T21:55:16.446Z,3.86
2018-01-27T21:57:42.514Z,3.88
2018-01-27T22:00:08.965Z,3.81
2018-01-27T22:02:35.028Z,3.72
2018-01-27T22:05:01.248Z,3.78
2018-01-27T22:07:27.427Z,3.73
2018-01-27T22:09:53.501Z,3.70
2018-01-27T22:12:19.537Z,3.81
2018-01-27T22:14:45.645Z,3.77
2018-01-27T22:17:11.696Z,3.78
2018-01-27T22:19:37.789Z,3.83
2018-01-27T22:22:03.897Z,3.87
2018-01-27T22:24:30.178Z,3.89
2018-01-27T22:26:56.211Z,3.92
2018-01-27T22:29:22.280Z,3.99
2018-01-27T22:31:48.345Z,4.02
2018-01-27T22:34:14.443Z,4.11
2018-01-27T22:36:40.620Z,4.12
2018-01-27T22:39:17.959Z,4.02
2018-01-27T22:41:44.105Z,4.01
2018-01-27T22:44:10.371Z,3.94
2018-01-27T22:46:36.404Z,3.91
2018-01-27T22:49:02.494Z,3.85
2018-01-27T22:51:28.536Z,3.85
2018-01-27T22:53:54.554Z,3.86
2018-01-27T22:56:20.580Z,3.85
2018-01-27T22:58:46.708Z,3.85
2018-01-27T23:01:22.814Z,3.81
2018-01-27T23:03:48.838Z,3.77
2018-01-27T23:06:14.863Z,3.79
2018-01-27T23:08:40.884Z,3.71
2018-01-27T23:11:07.009Z,3.73
2018-01-27T23:13:33.022Z,3.72
2018-01-27T23:15:59.066Z,3.68
2018-01-27T23:18:25.133Z,3.70
2018-01-27T23:20:51.228Z,3.64
2018-01-27T23:23:17.492Z,3.74
2018-01-27T23:25:43.511Z,3.68
2018-01-27T23:28:09.545Z,3.70
2018-01-27T23:30:35.723Z,3.73
2018-01-27T23:33:01.768Z,3.67
2018-01-27T23:35:27.764Z,3.64
2018-01-27T23:37:53.802Z,3.69
2018-01-27T23:40:19.900Z,3.69
2018-01-27T23:42:45.938Z,3.66
2018-01-27T23:45:12.000Z,3.73
2018-01-27T23:47:38.063Z,3.74
2018-01-27T23:50:04.060Z,3.75
2018-01-27T23:52:30.125Z,3.76
2018-01-27T23:54:56.120Z,3.75
2018-01-27T23:57:22.174Z,3.78
2018-01-27T23:59:48.240Z,3.76
